Time;durP1;ratioP1;P1;durP2;ratioP2;P2;SDS_P1;SDS_P2;PMS_P1;PMS_P2;Temp;Humidity;BMP_temperature;BMP_pressure;BME280_temperature;BME280_humidity;BME280_pressure;Samples;Min_cycle;Max_cycle;Signal;HPM_P1;HPM_P2
2021/12/15 00:02:21;;;;;;;29.80;14.53;;;;;;;2.57;84.77;95501.72;4992249;28;20263;-77
2021/12/15 00:04:50;;;;;;;29.17;13.50;;;;;;;2.61;85.09;95500.44;4992320;28;20191;-77
2021/12/15 00:07:20;;;;;;;33.97;15.07;;;;;;;2.55;85.13;95488.03;4990873;28;20204;-77
2021/12/15 00:09:46;;;;;;;30.17;14.37;;;;;;;2.52;85.39;95491.75;4992494;28;20215;-78
2021/12/15 00:12:14;;;;;;;29.13;13.30;;;;;;;2.61;84.82;95503.03;4992271;28;20200;-79
2021/12/15 00:14:40;;;;;;;28.93;13.80;;;;;;;2.70;85.24;95506.53;4991589;28;20177;-78
2021/12/15 00:17:08;;;;;;;26.23;12.77;;;;;;;2.76;84.55;95509.41;4991194;28;20197;-78
2021/12/15 00:19:34;;;;;;;27.33;13.80;;;;;;;2.70;84.19;95502.16;4991751;28;20246;-78
2021/12/15 00:22:00;;;;;;;27.07;13.33;;;;;;;2.77;83.96;95515.41;4992431;28;20180;-77
2021/12/15 00:24:27;;;;;;;26.90;14.17;;;;;;;2.74;84.55;95518.28;4990781;28;20177;-78
2021/12/15 00:26:56;;;;;;;30.77;15.37;;;;;;;2.74;84.55;95523.50;4990675;28;20180;-77
2021/12/15 00:29:24;;;;;;;27.17;14.63;;;;;;;2.57;84.72;95507.72;4989233;28;20196;-77
2021/12/15 00:31:50;;;;;;;34.47;14.47;;;;;;;2.55;84.73;95501.84;4991571;28;20192;-78
2021/12/15 00:34:17;;;;;;;31.17;14.80;;;;;;;2.70;84.56;95522.94;4992122;28;20724;-77
2021/12/15 00:36:44;;;;;;;29.53;13.77;;;;;;;2.69;84.63;95525.69;4991542;28;20708;-78
2021/12/15 00:39:12;;;;;;;25.33;13.33;;;;;;;2.75;84.86;95528.56;4991767;28;20208;-77
2021/12/15 00:41:38;;;;;;;27.07;14.43;;;;;;;2.79;84.73;95524.69;4991155;28;20177;-77
2021/12/15 00:44:04;;;;;;;28.10;13.60;;;;;;;2.89;84.80;95515.03;4989112;28;20219;-78
2021/12/15 00:46:30;;;;;;;25.43;12.63;;;;;;;2.90;84.18;95521.88;4989902;28;20220;-78
2021/12/15 00:48:55;;;;;;;28.77;12.40;;;;;;;2.81;83.77;95506.34;4991255;28;20211;-78
2021/12/15 00:51:21;;;;;;;23.97;11.03;;;;;;;2.97;84.00;95522.09;4991971;28;20239;-78
2021/12/15 00:53:47;;;;;;;19.47;10.80;;;;;;;2.99;83.01;95521.00;4991807;28;20242;-77
2021/12/15 00:56:12;;;;;;;24.07;12.47;;;;;;;2.74;82.79;95505.28;4992006;28;20180;-78
2021/12/15 00:58:38;;;;;;;25.97;12.63;;;;;;;2.77;83.74;95511.00;4991417;28;20205;-77
2021/12/15 01:01:04;;;;;;;25.77;11.67;;;;;;;2.82;83.67;95508.78;4991918;28;20185;-78
2021/12/15 01:03:30;;;;;;;24.40;11.97;;;;;;;2.90;83.55;95511.47;4991461;28;20260;-77
2021/12/15 01:06:03;;;;;;;25.30;12.43;;;;;;;2.91;82.67;95507.09;4991550;28;20243;-77
2021/12/15 01:08:31;;;;;;;25.47;12.13;;;;;;;2.88;82.73;95504.78;4994712;28;20546;-77
2021/12/15 01:11:17;;;;;;;25.93;12.30;;;;;;;2.76;82.86;95498.19;4994111;28;20193;-77
2021/12/15 01:19:51;;;;;;;24.20;11.47;;;;;;;2.69;84.02;95494.50;4970451;28;20215;-77
2021/12/15 01:22:31;;;;;;;32.90;12.07;;;;;;;2.70;83.80;95496.16;4995185;28;20177;-78
2021/12/15 01:25:28;;;;;;;23.13;11.17;;;;;;;2.79;84.03;95503.88;4995486;28;20188;-77
2021/12/15 01:27:53;;;;;;;21.07;9.77;;;;;;;2.89;82.96;95511.63;5005747;28;20174;-78
2021/12/15 01:30:22;;;;;;;22.60;10.50;;;;;;;2.89;83.15;95512.44;4994955;28;20572;-78
2021/12/15 01:32:48;;;;;;;19.87;9.87;;;;;;;2.96;82.90;95515.25;4995033;28;20186;-77
2021/12/15 01:35:15;;;;;;;19.50;9.87;;;;;;;2.97;82.12;95506.50;4994937;28;20185;-78
2021/12/15 01:37:41;;;;;;;19.17;9.43;;;;;;;3.00;81.95;95516.63;4994488;28;20236;-77
2021/12/15 01:40:11;;;;;;;20.37;10.50;;;;;;;3.01;81.93;95511.28;4994386;28;20312;-78
2021/12/15 01:42:37;;;;;;;19.97;10.23;;;;;;;2.83;81.84;95494.03;4986805;28;20243;-78
2021/12/15 01:47:59;;;;;;;22.03;9.47;;;;;;;2.78;82.35;95507.44;4994500;28;20192;-77
2021/12/15 01:50:25;;;;;;;22.27;10.27;;;;;;;2.68;82.90;95501.50;4993225;28;20173;-77
2021/12/15 01:52:50;;;;;;;21.00;10.80;;;;;;;2.68;82.98;95503.28;4994386;28;20185;-78
2021/12/15 01:55:22;;;;;;;24.87;11.67;;;;;;;2.71;83.03;95506.41;4993450;28;20189;-78
2021/12/15 01:57:49;;;;;;;20.33;10.10;;;;;;;2.76;82.79;95512.00;4994242;28;20258;-78
2021/12/15 02:00:17;;;;;;;22.40;11.07;;;;;;;2.73;82.62;95506.25;4993799;28;20188;-77
2021/12/15 02:02:43;;;;;;;20.87;10.03;;;;;;;2.67;82.27;95496.47;4992529;28;20626;-78
2021/12/15 02:05:10;;;;;;;20.13;10.23;;;;;;;2.67;82.40;95504.25;4994177;28;20181;-78
2021/12/15 02:07:36;;;;;;;24.07;11.03;;;;;;;2.70;82.48;95506.53;4994250;28;20181;-78
2021/12/15 02:10:05;;;;;;;21.27;11.43;;;;;;;2.76;82.79;95503.38;4994103;28;20682;-77
2021/12/15 02:12:37;;;;;;;20.90;10.17;;;;;;;2.74;82.75;95505.28;4993908;28;20169;-78
2021/12/15 02:15:17;;;;;;;19.70;10.03;;;;;;;2.75;82.44;95509.53;4994278;28;20928;-78
2021/12/15 02:17:46;;;;;;;22.00;10.47;;;;;;;2.55;82.24;95504.44;4990416;28;20638;-78
2021/12/15 02:20:15;;;;;;;23.27;10.73;;;;;;;2.50;83.05;95496.28;4993478;28;20272;-78
2021/12/15 02:22:41;;;;;;;22.87;10.90;;;;;;;2.55;83.45;95506.22;4993931;28;20643;-78
2021/12/15 02:25:10;;;;;;;23.40;11.33;;;;;;;2.60;83.64;95510.00;4994022;28;20219;-77
2021/12/15 02:27:38;;;;;;;22.77;11.27;;;;;;;2.65;83.34;95505.22;4993870;28;20607;-78
2021/12/15 02:38:31;;;;;;;22.33;10.80;;;;;;;2.47;82.88;95495.75;4986381;28;20593;-78
2021/12/15 02:41:05;;;;;;;21.50;11.10;;;;;;;2.49;82.69;95502.44;4993931;28;20201;-77
2021/12/15 02:43:33;;;;;;;20.93;10.33;;;;;;;2.47;82.55;95487.94;4993366;28;20181;-78
2021/12/15 02:45:59;;;;;;;20.83;11.63;;;;;;;2.58;82.34;95505.94;4989805;28;20220;-78
2021/12/15 02:48:25;;;;;;;19.40;10.10;;;;;;;2.49;82.00;95484.25;4993539;28;20177;-77
2021/12/15 02:50:50;;;;;;;19.37;9.97;;;;;;;2.41;80.92;95480.75;4993348;28;20611;-77
2021/12/15 02:53:17;;;;;;;25.77;10.47;;;;;;;2.40;81.37;95503.31;4993395;28;20177;-78
2021/12/15 02:55:46;;;;;;;21.63;10.60;;;;;;;2.46;81.83;95499.31;4993122;28;20191;-78
2021/12/15 02:58:11;;;;;;;20.27;10.83;;;;;;;2.54;81.60;95510.59;4993041;28;20708;-77
2021/12/15 03:06:46;;;;;;;16.77;8.67;;;;;;;2.53;79.42;95503.78;4984181;28;20196;-77
2021/12/15 03:17:07;;;;;;;24.93;11.37;;;;;;;2.51;79.12;95513.47;4992683;28;20201;-76
2021/12/15 03:19:33;;;;;;;20.87;10.23;;;;;;;2.53;78.62;95516.75;4992534;28;20311;-76
2021/12/15 03:21:58;;;;;;;16.47;9.10;;;;;;;2.47;78.44;95519.13;4992703;28;20571;-77
2021/12/15 03:24:27;;;;;;;21.60;10.77;;;;;;;2.53;79.27;95523.72;4992667;28;20568;-77
2021/12/15 03:27:05;;;;;;;21.00;9.40;;;;;;;2.57;79.20;95519.91;4992411;28;20208;-77
2021/12/15 03:37:33;;;;;;;21.40;10.40;;;;;;;2.68;79.01;95527.50;4992414;28;20292;-77
2021/12/15 03:40:07;;;;;;;18.40;9.07;;;;;;;2.56;78.74;95500.88;4992256;28;20233;-77
2021/12/15 03:42:59;;;;;;;18.17;9.43;;;;;;;2.75;78.66;95527.72;4992820;28;20967;-77
2021/12/15 03:45:31;;;;;;;18.83;9.13;;;;;;;2.81;78.46;95533.16;4992385;28;20181;-77
2021/12/15 03:48:01;;;;;;;19.50;9.50;;;;;;;2.79;78.40;95535.06;4992341;28;20195;-77
2021/12/15 03:50:29;;;;;;;18.90;9.03;;;;;;;2.75;78.86;95527.72;4991924;28;20636;-77
2021/12/15 03:52:55;;;;;;;16.37;8.87;;;;;;;2.83;78.59;95533.00;4992294;28;20184;-78
2021/12/15 03:55:24;;;;;;;20.63;9.90;;;;;;;2.75;78.18;95525.13;4992333;28;20710;-77
2021/12/15 03:57:50;;;;;;;17.93;8.03;;;;;;;2.77;77.14;95531.00;4992155;28;20216;-78
2021/12/15 04:00:18;;;;;;;14.87;7.53;;;;;;;2.70;77.43;95540.31;4991684;28;20638;-78
2021/12/15 04:02:45;;;;;;;20.70;8.33;;;;;;;2.56;77.84;95537.28;4992008;28;20665;-78
2021/12/15 04:05:13;;;;;;;19.27;9.43;;;;;;;2.47;77.86;95543.31;4992123;28;20260;-77
2021/12/15 04:07:39;;;;;;;17.60;8.17;;;;;;;2.35;78.25;95547.06;4992205;28;20638;-78
2021/12/15 04:10:08;;;;;;;18.47;9.10;;;;;;;2.33;78.95;95548.19;4991869;28;20223;-75
2021/12/15 04:12:33;;;;;;;18.47;9.03;;;;;;;2.18;78.95;95508.88;4991857;28;20200;-78
2021/12/15 04:18:03;;;;;;;15.60;7.97;;;;;;;2.25;78.67;95561.88;4983452;28;20274;-78
2021/12/15 04:20:34;;;;;;;18.07;9.40;;;;;;;2.12;79.08;95546.63;4992080;28;20207;-78
2021/12/15 04:23:01;;;;;;;14.33;8.23;;;;;;;2.11;79.11;95564.94;4991525;28;20307;-76
2021/12/15 04:25:30;;;;;;;19.70;9.67;;;;;;;2.06;79.23;95557.56;4990913;28;20189;-76
2021/12/15 04:27:58;;;;;;;20.10;10.03;;;;;;;2.05;79.46;95553.34;4991843;28;20234;-75
2021/12/15 04:30:25;;;;;;;17.87;9.37;;;;;;;2.21;79.89;95569.13;4991506;28;20181;-75
2021/12/15 04:32:53;;;;;;;22.07;9.10;;;;;;;2.21;79.47;95566.53;4991658;28;20712;-75
2021/12/15 04:35:19;;;;;;;18.67;8.93;;;;;;;2.00;79.16;95526.97;4991514;28;20259;-75
2021/12/15 04:37:46;;;;;;;16.57;9.17;;;;;;;2.28;79.24;95570.19;4991744;28;20733;-75
2021/12/15 04:40:14;;;;;;;18.47;9.93;;;;;;;2.32;79.27;95562.94;4991063;28;20213;-76
2021/12/15 04:42:40;;;;;;;24.30;10.77;;;;;;;2.34;79.26;95570.56;4993790;28;20201;-76
2021/12/15 04:45:08;;;;;;;22.63;11.27;;;;;;;2.41;78.56;95572.50;4995251;28;20183;-77
2021/12/15 04:47:33;;;;;;;16.40;8.23;;;;;;;2.32;78.42;95562.13;4995232;28;20190;-76
2021/12/15 04:49:59;;;;;;;19.80;10.07;;;;;;;2.39;78.18;95564.00;4995606;28;20185;-76
2021/12/15 04:52:28;;;;;;;19.67;10.57;;;;;;;2.41;78.46;95576.88;4994727;28;20264;-75
2021/12/15 04:54:57;;;;;;;20.33;11.70;;;;;;;2.34;78.63;95555.00;4995235;28;20189;-75
2021/12/15 04:57:22;;;;;;;25.70;12.57;;;;;;;2.50;78.38;95570.81;4995081;28;20716;-77
2021/12/15 04:59:49;;;;;;;33.80;12.73;;;;;;;2.51;78.48;95564.63;4992128;28;20204;-75
2021/12/15 05:02:16;;;;;;;28.67;12.50;;;;;;;2.55;78.08;95577.19;4994123;28;20634;-76
2021/12/15 05:04:42;;;;;;;24.73;11.77;;;;;;;2.49;78.40;95570.00;4995009;28;20204;-77
2021/12/15 05:07:08;;;;;;;23.53;11.70;;;;;;;2.50;78.19;95571.63;4994753;28;20259;-76
2021/12/15 05:09:34;;;;;;;22.40;11.93;;;;;;;2.44;78.21;95566.16;4994855;28;20622;-78
2021/12/15 05:11:59;;;;;;;27.77;13.17;;;;;;;2.48;78.89;95572.72;4994506;28;20181;-78
2021/12/15 05:14:25;;;;;;;25.50;12.53;;;;;;;2.47;78.56;95571.09;4994890;28;20173;-78
2021/12/15 05:16:55;;;;;;;22.40;12.10;;;;;;;2.57;78.22;95577.06;4995041;28;20553;-78
2021/12/15 05:19:21;;;;;;;24.03;11.60;;;;;;;2.42;78.16;95568.91;4994480;28;20631;-78
2021/12/15 05:21:50;;;;;;;21.57;11.30;;;;;;;2.44;77.84;95581.75;4994810;28;20180;-77
2021/12/15 05:24:50;;;;;;;21.87;10.97;;;;;;;2.28;78.35;95590.16;4994863;28;20181;-78
2021/12/15 05:27:11;;;;;;;23.23;11.67;;;;;;;2.27;78.69;95591.13;4992729;28;20227;-78
2021/12/15 05:29:39;;;;;;;26.80;13.13;;;;;;;2.32;78.07;95585.50;4993986;28;20260;-78
2021/12/15 05:32:08;;;;;;;21.47;11.20;;;;;;;2.24;77.66;95587.03;4993827;28;20332;-78
2021/12/15 05:34:37;;;;;;;21.27;11.23;;;;;;;2.33;78.65;95594.94;4994776;28;20252;-75
2021/12/15 05:37:04;;;;;;;25.03;13.07;;;;;;;2.25;78.03;95593.03;4994921;28;20207;-77
2021/12/15 05:39:30;;;;;;;28.70;12.97;;;;;;;2.18;78.50;95589.38;4994575;28;20236;-77
2021/12/15 05:41:56;;;;;;;28.17;12.40;;;;;;;2.26;78.42;95590.28;4994286;28;20614;-75
2021/12/15 05:44:24;;;;;;;25.83;13.20;;;;;;;2.22;77.97;95590.72;4994707;28;20212;-76
2021/12/15 05:46:54;;;;;;;27.03;14.00;;;;;;;2.09;79.28;95582.41;4994469;28;20181;-76
2021/12/15 05:49:20;;;;;;;22.63;10.93;;;;;;;2.16;79.24;95592.09;4994807;28;20184;-76
2021/12/15 05:51:46;;;;;;;21.40;11.13;;;;;;;2.18;78.84;95597.97;4994793;28;20185;-76
2021/12/15 05:54:11;;;;;;;23.43;12.33;;;;;;;2.20;78.38;95592.66;4993162;28;20181;-75
2021/12/15 05:56:39;;;;;;;22.37;11.63;;;;;;;2.23;78.94;95594.97;4994412;28;20185;-75
2021/12/15 05:59:04;;;;;;;27.40;13.33;;;;;;;2.21;78.47;95589.09;4993946;28;20193;-75
2021/12/15 06:01:31;;;;;;;25.23;11.30;;;;;;;2.20;78.41;95584.84;4993232;28;20714;-75
2021/12/15 06:03:56;;;;;;;24.37;11.63;;;;;;;2.27;77.88;95596.31;4993156;28;20267;-75
2021/12/15 06:06:22;;;;;;;24.53;12.07;;;;;;;2.32;78.50;95595.91;4993425;28;20653;-75
2021/12/15 06:08:48;;;;;;;24.97;12.73;;;;;;;2.26;78.47;95592.06;4989188;28;20187;-75
2021/12/15 06:11:14;;;;;;;25.77;13.70;;;;;;;2.20;78.39;95593.47;4990604;28;20658;-75
2021/12/15 06:13:40;;;;;;;26.47;13.67;;;;;;;1.98;78.94;95577.41;4993823;28;20181;-75
2021/12/15 06:16:06;;;;;;;24.70;12.63;;;;;;;1.87;78.54;95555.84;4993775;28;20205;-75
2021/12/15 06:18:33;;;;;;;22.40;12.47;;;;;;;2.22;78.62;95603.72;4993587;28;20327;-76
2021/12/15 06:21:03;;;;;;;25.73;10.97;;;;;;;2.23;77.88;95580.22;4993573;28;20185;-75
2021/12/15 06:23:30;;;;;;;35.57;14.30;;;;;;;2.40;77.48;95598.59;4993659;28;20181;-75
2021/12/15 06:26:01;;;;;;;32.90;14.27;;;;;;;2.42;77.52;95605.28;4993790;28;20177;-76
2021/12/15 06:28:29;;;;;;;31.27;14.53;;;;;;;2.43;77.84;95606.91;4993807;28;20243;-75
2021/12/15 06:30:56;;;;;;;35.63;15.43;;;;;;;2.46;77.75;95598.84;4993861;28;20654;-76
2021/12/15 06:33:22;;;;;;;33.23;14.77;;;;;;;2.51;77.59;95606.19;4993622;28;20189;-76
2021/12/15 06:35:53;;;;;;;28.13;13.53;;;;;;;2.41;77.65;95603.66;4993805;28;20231;-76
2021/12/15 06:38:24;;;;;;;27.70;13.10;;;;;;;2.39;77.34;95592.59;4993593;28;20205;-76
2021/12/15 06:40:50;;;;;;;28.00;12.40;;;;;;;2.33;77.95;95587.16;4993098;28;20217;-76
2021/12/15 06:43:16;;;;;;;35.77;14.57;;;;;;;2.38;77.75;95608.31;4993210;28;20236;-76
2021/12/15 06:59:24;;;;;;;30.47;12.60;;;;;;;2.62;76.59;95617.25;4985372;28;20191;-76
2021/12/15 07:01:51;;;;;;;26.87;12.13;;;;;;;2.52;76.62;95606.06;4992854;28;20263;-76
2021/12/15 07:04:21;;;;;;;31.67;12.27;;;;;;;2.67;77.04;95623.81;4992363;28;20184;-76
2021/12/15 07:06:48;;;;;;;34.20;13.57;;;;;;;2.57;76.96;95601.28;4992661;28;20185;-76
2021/12/15 07:09:14;;;;;;;33.70;16.33;;;;;;;2.71;76.39;95623.34;4992407;28;20181;-76
2021/12/15 07:11:41;;;;;;;31.60;13.23;;;;;;;2.70;76.58;95624.31;4992751;28;20192;-76
2021/12/15 07:14:06;;;;;;;22.03;10.23;;;;;;;2.67;76.10;95624.63;4992550;28;20351;-76
2021/12/15 07:16:34;;;;;;;24.00;12.10;;;;;;;2.60;76.71;95626.94;4992403;28;20312;-76
2021/12/15 07:19:17;;;;;;;25.40;11.87;;;;;;;2.65;76.96;95632.56;4990805;28;20638;-76
2021/12/15 07:21:54;;;;;;;19.17;9.63;;;;;;;2.68;76.47;95641.84;4992044;28;20180;-75
2021/12/15 07:24:20;;;;;;;14.43;8.03;;;;;;;2.67;76.79;95635.03;4988674;28;20184;-75
2021/12/15 07:26:46;;;;;;;18.97;9.93;;;;;;;2.69;76.64;95645.25;4991899;28;20227;-75
2021/12/15 07:29:11;;;;;;;20.73;11.60;;;;;;;2.73;76.33;95644.00;4992149;28;20189;-75
2021/12/15 07:31:37;;;;;;;20.17;11.33;;;;;;;2.76;76.65;95634.16;4992155;28;20195;-74
2021/12/15 07:34:03;;;;;;;22.30;10.87;;;;;;;2.83;76.60;95637.81;4991896;28;20314;-74
2021/12/15 07:36:28;;;;;;;16.10;8.50;;;;;;;2.88;76.22;95632.16;4991881;28;20295;-75
2021/12/15 07:38:56;;;;;;;12.97;7.63;;;;;;;2.71;75.96;95620.75;4991657;28;20208;-75
2021/12/15 07:41:29;;;;;;;16.93;8.80;;;;;;;2.87;75.95;95651.34;4991416;28;20275;-75
2021/12/15 07:43:58;;;;;;;16.83;9.33;;;;;;;2.82;76.81;95637.97;4991448;28;20243;-75
2021/12/15 07:46:24;;;;;;;18.20;9.03;;;;;;;2.81;76.49;95646.72;4991419;28;20219;-75
2021/12/15 07:48:50;;;;;;;20.13;9.67;;;;;;;2.84;76.22;95656.84;4991250;28;20177;-75
2021/12/15 07:51:15;;;;;;;15.17;9.33;;;;;;;2.83;75.87;95665.59;4991031;28;20165;-75
2021/12/15 07:53:43;;;;;;;19.50;9.23;;;;;;;2.85;76.79;95664.50;4990885;28;20204;-75
2021/12/15 07:56:09;;;;;;;20.00;9.37;;;;;;;2.87;76.53;95664.31;4990863;28;20654;-74
2021/12/15 07:58:35;;;;;;;22.80;10.50;;;;;;;2.93;76.22;95672.41;4991009;28;20197;-74
2021/12/15 08:01:04;;;;;;;20.30;11.07;;;;;;;3.02;76.04;95668.13;4990502;28;20622;-75
2021/12/15 08:06:51;;;;;;;24.30;12.03;;;;;;;2.93;75.48;95658.56;4991418;28;20200;-75
2021/12/15 08:09:18;;;;;;;20.60;10.47;;;;;;;3.02;76.05;95675.91;4991209;28;20181;-75
2021/12/15 08:11:46;;;;;;;17.10;8.60;;;;;;;2.97;75.52;95665.09;4991428;28;20180;-75
2021/12/15 08:14:11;;;;;;;16.60;9.03;;;;;;;2.86;75.42;95662.69;4991126;28;20188;-75
2021/12/15 08:16:37;;;;;;;12.57;7.50;;;;;;;2.81;75.79;95662.31;4992011;28;20181;-75
2021/12/15 08:19:03;;;;;;;18.43;9.53;;;;;;;2.73;76.40;95686.41;4995535;28;20203;-75
2021/12/15 08:21:29;;;;;;;20.43;9.87;;;;;;;2.49;76.65;95647.13;4994046;28;20181;-75
2021/12/15 08:23:56;;;;;;;19.80;11.03;;;;;;;2.74;76.94;95682.03;4995360;28;20266;-75
2021/12/15 08:26:22;;;;;;;16.70;9.03;;;;;;;2.85;76.69;95684.47;4995442;28;20216;-75
2021/12/15 08:28:47;;;;;;;17.97;9.47;;;;;;;2.87;76.60;95691.16;4995384;28;20177;-75
2021/12/15 08:31:13;;;;;;;20.77;9.90;;;;;;;2.83;76.52;95689.00;4995445;28;20232;-75
2021/12/15 08:33:39;;;;;;;21.20;10.93;;;;;;;2.82;76.67;95684.75;4995342;28;20622;-75
2021/12/15 08:36:09;;;;;;;19.60;10.50;;;;;;;2.81;76.41;95691.72;4995231;28;20185;-75
2021/12/15 08:38:37;;;;;;;28.03;12.00;;;;;;;2.84;77.32;95693.22;4995279;28;20181;-75
2021/12/15 08:41:07;;;;;;;31.13;14.77;;;;;;;2.73;77.06;95696.00;4994668;28;20228;-75
2021/12/15 08:43:32;;;;;;;30.70;13.60;;;;;;;2.63;77.14;95677.84;4995239;28;20279;-75
2021/12/15 08:46:03;;;;;;;28.57;14.23;;;;;;;2.75;77.34;95692.31;4995076;28;20644;-75
2021/12/15 08:48:30;;;;;;;20.47;11.70;;;;;;;2.76;76.89;95691.34;4994898;28;20676;-75
2021/12/15 08:50:55;;;;;;;19.23;10.47;;;;;;;2.62;76.93;95695.19;4995071;28;20192;-76
2021/12/15 08:53:23;;;;;;;32.13;14.60;;;;;;;2.63;77.08;95696.03;4995248;28;20177;-74
2021/12/15 08:55:51;;;;;;;29.13;14.00;;;;;;;2.68;77.63;95698.22;4994774;28;20204;-74
2021/12/15 08:58:19;;;;;;;31.63;13.20;;;;;;;2.62;77.45;95689.19;4994360;28;20816;-75
2021/12/15 09:00:47;;;;;;;28.20;13.67;;;;;;;2.77;77.48;95699.97;4994441;28;20683;-74
2021/12/15 09:03:15;;;;;;;25.97;12.90;;;;;;;2.79;76.96;95708.41;4994651;28;20177;-74
2021/12/15 09:05:42;;;;;;;25.77;11.63;;;;;;;2.69;77.12;95707.63;4994479;28;20312;-75
2021/12/15 09:08:10;;;;;;;32.63;14.97;;;;;;;2.76;77.79;95711.31;4994910;28;20185;-75
2021/12/15 09:10:39;;;;;;;26.67;13.90;;;;;;;2.52;77.65;95702.19;4994906;28;20177;-75
2021/12/15 09:13:05;;;;;;;22.23;12.20;;;;;;;2.36;77.59;95704.56;4994721;28;20184;-75
2021/12/15 09:15:31;;;;;;;20.90;12.07;;;;;;;2.27;78.30;95702.81;4994575;28;20563;-75
2021/12/15 09:17:57;;;;;;;31.00;14.23;;;;;;;2.34;78.65;95713.44;4994224;28;20197;-75
2021/12/15 09:20:26;;;;;;;20.57;11.33;;;;;;;2.26;78.26;95714.97;4994479;28;20228;-75
2021/12/15 09:22:52;;;;;;;39.67;18.87;;;;;;;2.19;78.76;95687.09;4994224;28;20185;-75
2021/12/15 09:25:18;;;;;;;20.90;9.37;;;;;;;2.19;78.53;95698.31;4994182;28;20176;-75
2021/12/15 09:27:45;;;;;;;18.80;10.10;;;;;;;2.33;78.90;95710.06;4994317;28;20231;-75
2021/12/15 09:30:15;;;;;;;21.13;11.17;;;;;;;2.45;79.02;95705.50;4994368;28;20177;-74
2021/12/15 09:32:41;;;;;;;23.57;13.87;;;;;;;2.43;78.05;95705.63;4994331;28;20178;-74
2021/12/15 09:35:08;;;;;;;26.13;13.13;;;;;;;2.51;78.02;95702.34;4994402;28;20697;-75
2021/12/15 09:37:34;;;;;;;21.00;12.17;;;;;;;2.46;78.28;95691.56;4994417;28;20197;-75
2021/12/15 09:40:00;;;;;;;21.67;13.53;;;;;;;2.50;78.13;95678.16;4993077;28;20221;-75
2021/12/15 09:42:34;;;;;;;26.67;13.60;;;;;;;2.56;78.37;95687.16;4994521;28;20177;-76
2021/12/15 09:45:20;;;;;;;23.50;12.63;;;;;;;2.64;78.06;95713.25;4985645;28;20256;-75
2021/12/15 10:18:04;;;;;;;22.90;11.93;;;;;;;2.72;78.05;95684.78;4992303;28;20611;-75
2021/12/15 10:20:31;;;;;;;32.60;14.43;;;;;;;2.68;77.93;95678.25;4992388;28;20188;-75
2021/12/15 10:23:01;;;;;;;22.03;12.27;;;;;;;2.80;77.78;95686.66;4992512;28;20693;-75
2021/12/15 10:25:37;;;;;;;28.60;14.50;;;;;;;2.86;78.04;95686.09;4992263;28;20173;-75
2021/12/15 10:28:10;;;;;;;28.97;13.53;;;;;;;2.89;78.35;95675.41;4992443;28;20173;-75
2021/12/15 10:30:45;;;;;;;25.73;13.40;;;;;;;2.88;78.22;95673.78;4992422;28;20212;-75
2021/12/15 10:33:16;;;;;;;24.27;12.13;;;;;;;2.96;78.25;95679.06;4992228;28;20176;-75
2021/12/15 10:35:43;;;;;;;23.40;13.10;;;;;;;2.99;78.09;95671.00;4992243;28;20260;-76
2021/12/15 10:38:29;;;;;;;30.33;16.00;;;;;;;3.02;78.04;95666.34;4992200;28;20276;-76
2021/12/15 10:41:15;;;;;;;25.83;13.53;;;;;;;3.03;77.73;95670.53;4991922;28;20788;-76
2021/12/15 10:43:49;;;;;;;28.77;14.73;;;;;;;3.11;77.80;95666.44;4991893;28;20221;-75
2021/12/15 10:46:38;;;;;;;30.27;15.33;;;;;;;3.08;77.46;95664.09;4990119;28;20271;-75
2021/12/15 10:49:13;;;;;;;40.57;12.77;;;;;;;3.10;77.73;95668.22;4976274;28;20196;-73
2021/12/15 10:51:44;;;;;;;21.03;12.50;;;;;;;3.09;77.78;95658.75;4990796;28;20779;-76
2021/12/15 10:54:25;;;;;;;31.33;14.97;;;;;;;3.06;77.95;95664.25;4990629;28;20177;-75
2021/12/15 10:57:03;;;;;;;37.77;15.60;;;;;;;2.99;78.55;95651.00;4990426;28;20753;-74
2021/12/15 10:59:33;;;;;;;33.00;15.77;;;;;;;3.11;78.68;95658.63;4990715;28;20625;-75
2021/12/15 11:02:08;;;;;;;30.50;15.53;;;;;;;3.15;78.87;95663.38;4990563;28;20704;-76
2021/12/15 11:04:59;;;;;;;24.53;13.43;;;;;;;3.17;79.10;95661.47;4990781;28;20204;-76
2021/12/15 11:07:52;;;;;;;31.47;15.00;;;;;;;3.26;79.16;95665.78;4990245;28;20658;-76
2021/12/15 11:10:28;;;;;;;32.93;15.13;;;;;;;3.28;78.70;95663.03;4989807;28;20180;-76
2021/12/15 11:13:00;;;;;;;30.03;14.60;;;;;;;3.34;78.79;95663.28;4990769;28;20263;-76
2021/12/15 11:15:40;;;;;;;27.67;14.67;;;;;;;3.41;78.11;95661.72;4990942;28;20173;-76
2021/12/15 11:18:22;;;;;;;24.90;13.07;;;;;;;3.42;78.15;95655.56;4990510;28;20212;-76
2021/12/15 11:21:08;;;;;;;26.27;13.13;;;;;;;3.40;78.01;95654.88;4990606;28;20177;-76
2021/12/15 11:23:35;;;;;;;34.17;15.77;;;;;;;3.30;77.58;95642.88;4990177;28;20189;-76
2021/12/15 11:26:06;;;;;;;47.70;24.50;;;;;;;3.39;77.57;95653.22;4990532;28;20561;-76
2021/12/15 11:28:40;;;;;;;50.37;25.97;;;;;;;3.20;77.59;95637.72;4990561;28;20169;-76
2021/12/15 11:31:11;;;;;;;60.00;32.73;;;;;;;3.33;78.61;95656.44;4990379;28;20235;-76
2021/12/15 11:34:05;;;;;;;29.40;17.87;;;;;;;3.25;77.42;95651.13;4991652;28;20256;-78
2021/12/15 11:36:44;;;;;;;21.00;12.00;;;;;;;3.21;77.34;95654.16;4983937;28;20759;-76
2021/12/15 11:39:20;;;;;;;29.40;13.37;;;;;;;3.18;77.76;95644.88;4990798;28;20196;-76
2021/12/15 11:41:52;;;;;;;24.20;12.23;;;;;;;3.28;77.95;95652.63;4989179;28;20231;-76
2021/12/15 11:44:22;;;;;;;20.13;11.10;;;;;;;3.33;77.63;95640.00;4991086;28;20252;-76
2021/12/15 11:46:50;;;;;;;18.67;11.30;;;;;;;3.42;78.11;95642.53;4991596;28;20585;-76
2021/12/15 11:49:19;;;;;;;19.57;10.77;;;;;;;3.48;77.37;95650.72;4991543;28;20553;-74
2021/12/15 11:51:49;;;;;;;22.57;10.70;;;;;;;3.51;77.30;95648.66;4990734;28;20168;-75
2021/12/15 11:54:26;;;;;;;18.77;9.67;;;;;;;3.51;77.06;95645.22;4991431;28;20634;-74
2021/12/15 11:57:07;;;;;;;22.73;11.03;;;;;;;3.45;77.15;95651.03;4991334;28;20172;-74
2021/12/15 11:59:38;;;;;;;20.50;9.93;;;;;;;3.37;77.38;95649.16;4990573;28;20184;-74
2021/12/15 12:02:19;;;;;;;23.50;11.73;;;;;;;3.28;77.54;95644.84;4989856;28;20263;-74
2021/12/15 12:04:48;;;;;;;24.80;12.80;;;;;;;3.29;78.03;95646.44;4989953;28;20191;-75
2021/12/15 12:07:16;;;;;;;35.97;15.27;;;;;;;3.40;78.01;95633.22;4989862;28;20195;-75
2021/12/15 12:09:44;;;;;;;30.93;13.87;;;;;;;3.47;78.08;95646.47;4990415;28;20336;-74
2021/12/15 12:12:12;;;;;;;24.13;12.00;;;;;;;3.50;77.73;95639.19;4989943;28;20682;-74
2021/12/15 12:14:51;;;;;;;32.20;13.97;;;;;;;3.53;77.10;95648.50;4989462;28;20181;-74
2021/12/15 12:17:18;;;;;;;23.90;12.47;;;;;;;3.43;77.66;95648.56;4988894;28;20212;-76
2021/12/15 12:19:51;;;;;;;21.63;12.03;;;;;;;3.46;77.42;95645.66;4989952;28;20537;-74
2021/12/15 12:22:18;;;;;;;21.50;10.53;;;;;;;3.35;77.45;95643.28;4990766;28;20180;-74
2021/12/15 12:24:46;;;;;;;22.57;11.47;;;;;;;3.18;77.70;95641.47;4989762;28;20177;-74
2021/12/15 12:27:12;;;;;;;25.80;13.20;;;;;;;3.19;78.51;95643.13;4991303;28;20169;-74
2021/12/15 12:29:38;;;;;;;28.23;13.00;;;;;;;3.24;78.68;95638.28;4990847;28;20173;-75
2021/12/15 12:32:04;;;;;;;26.77;14.20;;;;;;;2.98;78.28;95632.94;4990934;28;20181;-74
2021/12/15 12:34:31;;;;;;;23.90;12.67;;;;;;;2.82;79.54;95630.16;4990836;28;20204;-75
2021/12/15 12:36:57;;;;;;;31.67;15.33;;;;;;;2.81;80.31;95621.53;4990814;28;20177;-75
2021/12/15 12:39:34;;;;;;;37.03;17.80;;;;;;;2.98;79.25;95638.16;4990250;28;20177;-75
2021/12/15 12:42:00;;;;;;;31.27;16.43;;;;;;;2.80;79.44;95637.28;4990394;28;20207;-74
2021/12/15 12:44:44;;;;;;;29.53;15.00;;;;;;;2.83;79.95;95637.00;4989942;28;20295;-77
2021/12/15 12:47:27;;;;;;;25.90;14.67;;;;;;;2.93;79.21;95642.97;4989214;28;20196;-76
2021/12/15 13:00:56;;;;;;;21.07;11.77;;;;;;;3.02;79.30;95636.91;4989430;28;20192;-74
2021/12/15 13:03:36;;;;;;;26.97;14.33;;;;;;;3.11;78.95;95638.63;4991682;28;20188;-77
2021/12/15 13:06:30;;;;;;;28.27;13.67;;;;;;;3.06;78.90;95625.22;4994486;28;20264;-77
2021/12/15 13:09:11;;;;;;;29.83;14.37;;;;;;;2.96;79.11;95624.47;4990215;28;20193;-74
2021/12/15 13:11:39;;;;;;;23.70;13.20;;;;;;;3.13;78.98;95646.28;4994685;28;20180;-73
2021/12/15 13:14:10;;;;;;;29.73;15.07;;;;;;;3.15;78.99;95642.56;4993938;28;20280;-74
2021/12/15 13:16:38;;;;;;;23.67;12.00;;;;;;;3.14;78.70;95642.72;4993861;28;20192;-74
2021/12/15 13:19:24;;;;;;;27.27;13.07;;;;;;;3.16;78.62;95638.19;4993937;28;20200;-74